Time;durP1;ratioP1;P1;durP2;ratioP2;P2;SDS_P1;SDS_P2;PMS_P1;PMS_P2;Temp;Humidity;BMP_temperature;BMP_pressure;BME280_temperature;BME280_humidity;BME280_pressure;Samples;Min_cycle;Max_cycle;Signal;HPM_P1;HPM_P2
2022/08/09 06:34:21;;;;;;;3.03;1.50;;;;;;;18.50;49.89;97253.91;2086008;28;20558;-66
2022/08/09 06:35:24;;;;;;;14.05;2.50;;;;;;;18.65;49.91;97257.31;2085111;28;20223;-66
2022/08/09 06:36:45;;;;;;;12.55;2.10;;;;;;;18.93;49.31;97249.22;2079618;28;20221;-66
2022/08/09 06:37:46;;;;;;;12.88;2.28;;;;;;;19.07;49.14;97255.34;2081951;28;20283;-66
2022/08/09 06:55:39;;;;;;;5.05;1.85;;;;;;;20.92;46.07;97258.78;2084895;28;20557;-64
2022/08/09 06:56:41;;;;;;;4.63;1.80;;;;;;;21.00;45.71;97262.53;2079041;28;20217;-65
2022/08/09 06:57:46;;;;;;;6.60;1.70;;;;;;;21.06;45.65;97260.38;2079246;28;20200;-65
2022/08/09 06:59:04;;;;;;;7.95;1.95;;;;;;;21.21;45.72;97253.84;2078999;28;20200;-65
2022/08/09 07:14:18;;;;;;;4.93;1.80;;;;;;;22.99;43.40;97274.03;2100864;27;20568;-65
2022/08/09 07:15:27;;;;;;;4.88;1.67;;;;;;;23.11;42.91;97282.81;2098122;28;20206;-65
2022/08/09 07:16:49;;;;;;;3.25;1.65;;;;;;;23.01;42.95;97269.44;2090422;28;20223;-65
2022/08/09 07:17:58;;;;;;;10.45;1.55;;;;;;;23.16;43.19;97280.63;2091065;28;20200;-65
2022/08/09 07:19:03;;;;;;;4.47;1.70;;;;;;;23.39;42.64;97280.44;2090392;28;20222;-65
2022/08/09 07:34:47;;;;;;;5.45;1.50;;;;;;;24.59;40.45;97290.25;2100529;27;20565;-65
2022/08/09 07:35:52;;;;;;;2.38;1.52;;;;;;;24.74;40.05;97288.03;2098410;27;20252;-65
2022/08/09 07:36:55;;;;;;;7.85;2.10;;;;;;;24.56;40.34;97293.22;2082044;28;20197;-65
2022/08/09 07:37:56;;;;;;;3.72;1.23;;;;;;;24.84;40.32;97290.69;2082390;28;20201;-65
2022/08/09 07:38:59;;;;;;;5.50;1.42;;;;;;;25.12;39.79;97290.78;2081028;28;20196;-65
2022/08/09 07:40:03;;;;;;;3.28;1.50;;;;;;;25.12;39.36;97288.94;2081698;28;20200;-65
2022/08/09 07:55:54;;;;;;;7.57;1.60;;;;;;;24.18;41.11;97289.53;2083823;28;20557;-67
2022/08/09 07:57:07;;;;;;;12.10;1.90;;;;;;;23.80;41.67;97287.44;2083935;28;20578;-65
2022/08/09 07:58:12;;;;;;;5.40;1.55;;;;;;;23.94;41.58;97296.09;2083640;28;20591;-65
2022/08/09 07:59:14;;;;;;;4.88;1.88;;;;;;;24.19;40.04;97293.88;2079431;28;20658;-65
2022/08/09 08:00:36;;;;;;;3.40;1.60;;;;;;;24.36;40.08;97300.38;2082625;28;20330;-66
2022/08/09 08:01:56;;;;;;;3.28;1.63;;;;;;;24.63;39.84;97297.00;2080127;28;20220;-65
2022/08/09 08:02:59;;;;;;;4.50;1.80;;;;;;;24.28;39.93;97293.91;2080636;28;20184;-66
2022/08/09 08:19:03;;;;;;;7.70;2.05;;;;;;;25.00;39.36;97304.31;2101632;27;20574;-65
2022/08/09 08:20:05;;;;;;;2.50;1.23;;;;;;;25.30;38.53;97301.56;2093360;28;20195;-66
2022/08/09 08:21:13;;;;;;;5.30;1.83;;;;;;;25.61;38.26;97304.88;2085722;28;20217;-65
2022/08/09 08:22:15;;;;;;;3.88;2.10;;;;;;;25.72;37.90;97306.50;2075747;28;20227;-66
2022/08/09 08:23:25;;;;;;;8.52;1.98;;;;;;;24.87;39.47;97301.91;2075076;28;20201;-66
2022/08/09 08:24:27;;;;;;;3.67;1.80;;;;;;;25.41;38.84;97309.44;2075639;28;20194;-66
2022/08/09 08:25:41;;;;;;;3.70;1.60;;;;;;;25.81;38.27;97305.59;2075521;28;20189;-66
2022/08/09 08:26:47;;;;;;;4.43;1.70;;;;;;;25.17;38.66;97296.53;2067108;28;20224;-66
2022/08/09 08:27:57;;;;;;;3.83;1.23;;;;;;;25.65;38.15;97302.72;2067914;28;20747;-65
2022/08/09 08:28:58;;;;;;;4.22;1.48;;;;;;;25.96;37.90;97308.63;2067605;28;20273;-66
2022/08/09 08:47:03;;;;;;;5.32;2.13;;;;;;;24.90;38.70;97314.13;2083064;28;20526;-65
2022/08/09 08:48:13;;;;;;;4.47;1.70;;;;;;;25.71;37.28;97312.81;2077797;28;20201;-66
2022/08/09 08:49:21;;;;;;;4.30;1.80;;;;;;;25.92;36.80;97325.97;2079304;28;20537;-66
2022/08/09 08:50:38;;;;;;;4.25;1.88;;;;;;;24.92;38.37;97317.53;2077955;28;20648;-65
2022/08/09 08:51:46;;;;;;;6.13;1.95;;;;;;;25.69;37.46;97309.47;2078756;28;20436;-68
2022/08/09 08:53:05;;;;;;;6.80;2.20;;;;;;;26.51;36.32;97315.75;2078431;28;20204;-68
2022/08/09 08:54:16;;;;;;;6.57;1.70;;;;;;;26.94;35.26;97318.66;2078971;28;20663;-68
2022/08/09 08:55:29;;;;;;;3.38;1.50;;;;;;;27.30;34.49;97317.72;2078984;28;20196;-68
2022/08/09 08:56:37;;;;;;;5.60;1.58;;;;;;;27.40;34.18;97323.03;2078451;28;20577;-68
2022/08/09 08:57:40;;;;;;;13.25;1.80;;;;;;;27.20;34.57;97316.00;2079161;28;20250;-66
2022/08/09 08:58:42;;;;;;;2.53;1.67;;;;;;;27.43;34.67;97328.09;2079290;28;20201;-66
2022/08/09 08:59:48;;;;;;;2.00;1.42;;;;;;;27.75;34.14;97332.75;2078455;28;20228;-66
2022/08/09 09:19:13;;;;;;;10.30;2.30;;;;;;;27.14;33.80;97327.34;2100287;27;20548;-65
2022/08/09 09:20:35;;;;;;;5.55;1.58;;;;;;;25.82;35.36;97319.81;2095258;28;20677;-65
2022/08/09 09:22:12;;;;;;;8.57;2.58;;;;;;;25.90;35.71;97307.41;2088023;28;20235;-66
2022/08/09 09:23:16;;;;;;;3.33;1.52;;;;;;;26.34;34.59;97314.75;2087369;28;20200;-65
2022/08/09 09:24:17;;;;;;;4.47;2.00;;;;;;;26.79;34.05;97318.38;2087641;28;20197;-66
2022/08/09 09:25:41;;;;;;;6.65;2.10;;;;;;;25.53;36.29;97316.25;2087365;28;20267;-66
2022/08/09 09:27:03;;;;;;;4.95;1.63;;;;;;;25.52;36.86;97319.09;2086989;28;20244;-66
2022/08/09 09:28:05;;;;;;;4.68;2.10;;;;;;;25.59;36.39;97310.34;2087496;28;20207;-65
2022/08/09 09:29:11;;;;;;;7.25;2.00;;;;;;;26.06;36.37;97311.28;2087506;28;20197;-66
2022/08/09 09:30:18;;;;;;;5.57;1.77;;;;;;;26.20;35.36;97321.47;2087111;28;20188;-66
2022/08/09 09:31:39;;;;;;;6.70;1.77;;;;;;;27.17;34.08;97310.97;2086941;28;20235;-68
2022/08/09 09:33:11;;;;;;;6.28;1.80;;;;;;;27.93;32.83;97316.56;2086533;28;20586;-65
2022/08/09 09:34:17;;;;;;;9.55;1.67;;;;;;;28.39;31.50;97310.88;2086356;28;20270;-66
2022/08/09 09:35:19;;;;;;;4.63;1.33;;;;;;;28.61;31.00;97304.00;2087561;28;20204;-65
2022/08/09 09:36:21;;;;;;;7.38;1.55;;;;;;;28.74;31.63;97308.91;2087128;28;20224;-65
2022/08/09 09:37:28;;;;;;;7.82;2.00;;;;;;;28.94;31.49;97313.97;2087418;28;20231;-65
2022/08/09 09:58:06;;;;;;;11.85;1.83;;;;;;;27.84;31.96;97304.94;2085386;28;20584;-64
2022/08/09 09:59:31;;;;;;;3.72;2.00;;;;;;;28.43;31.33;97303.31;2083867;28;20201;-65
2022/08/09 10:00:43;;;;;;;4.72;1.58;;;;;;;29.15;30.37;97305.34;2080557;28;20200;-65
2022/08/09 10:01:59;;;;;;;3.80;1.67;;;;;;;28.09;31.01;97306.94;2075488;28;20225;-66
2022/08/09 10:03:00;;;;;;;7.53;1.50;;;;;;;28.43;30.43;97314.91;2075349;28;20190;-65
2022/08/09 10:04:17;;;;;;;2.65;1.73;;;;;;;28.83;30.65;97307.06;2075946;28;20193;-65
2022/08/09 10:05:31;;;;;;;9.65;1.70;;;;;;;28.48;30.89;97309.00;2073452;28;20726;-65
2022/08/09 10:06:53;;;;;;;8.98;1.70;;;;;;;27.38;32.27;97307.91;2080456;28;20266;-65
2022/08/09 10:08:05;;;;;;;9.45;1.48;;;;;;;26.48;32.80;97299.16;2082858;28;20188;-65
2022/08/09 10:09:26;;;;;;;14.07;2.00;;;;;;;27.93;31.38;97305.81;2086901;28;20211;-65
2022/08/09 10:10:29;;;;;;;12.00;1.60;;;;;;;28.85;30.36;97302.38;2083503;28;20203;-64
2022/08/09 10:11:33;;;;;;;6.72;1.48;;;;;;;29.42;30.10;97306.84;2085251;28;20228;-66
2022/08/09 10:12:54;;;;;;;6.20;1.65;;;;;;;29.88;29.37;97310.75;2086477;28;20278;-65
2022/08/09 10:13:56;;;;;;;5.72;1.33;;;;;;;30.17;28.52;97312.81;2085621;28;20196;-65
2022/08/09 10:15:14;;;;;;;2.10;1.20;;;;;;;30.26;28.52;97300.97;2088024;28;20195;-65
2022/08/09 10:16:32;;;;;;;9.82;1.75;;;;;;;28.40;30.39;97291.03;2083327;28;20603;-65
2022/08/09 10:17:54;;;;;;;7.95;1.67;;;;;;;28.12;31.66;97302.06;2083718;28;20216;-65
2022/08/09 10:19:01;;;;;;;2.17;1.30;;;;;;;28.57;30.80;97297.28;2090723;28;20197;-65
2022/08/09 10:20:06;;;;;;;3.83;1.30;;;;;;;29.36;30.03;97295.94;2089701;28;20196;-65
2022/08/09 10:21:15;;;;;;;4.75;1.30;;;;;;;30.05;29.06;97287.31;2084143;28;20285;-65
2022/08/09 10:22:16;;;;;;;4.80;1.30;;;;;;;30.38;29.02;97296.00;2085863;28;20199;-65
2022/08/09 10:23:33;;;;;;;3.92;1.52;;;;;;;30.70;28.45;97287.91;2082371;28;20661;-66
2022/08/09 10:24:35;;;;;;;8.27;1.30;;;;;;;30.67;28.48;97297.19;2084898;28;20197;-65
2022/08/09 10:45:47;;;;;;;3.20;1.30;;;;;;;31.98;27.29;97280.69;2110323;27;20563;-65
2022/08/09 10:47:21;;;;;;;6.78;1.52;;;;;;;30.79;28.08;97276.03;2091497;28;20223;-65
2022/08/09 10:49:11;;;;;;;10.43;1.63;;;;;;;30.15;29.26;97287.91;2078760;28;20782;-65
2022/08/09 10:52:12;;;;;;;4.00;1.30;;;;;;;30.77;28.36;97283.47;2077892;28;20220;-66
2022/08/09 10:53:32;;;;;;;5.32;1.52;;;;;;;31.64;27.46;97284.84;2077836;28;20201;-67
2022/08/09 10:54:40;;;;;;;13.35;1.80;;;;;;;32.05;27.02;97281.63;2079226;28;20204;-66
2022/08/09 10:55:43;;;;;;;15.55;2.95;;;;;;;31.70;27.12;97286.78;2079341;28;20207;-66
2022/08/09 10:57:13;;;;;;;4.00;1.50;;;;;;;30.72;27.75;97285.88;2073050;28;20232;-67
2022/08/09 10:58:33;;;;;;;4.07;1.37;;;;;;;30.00;27.90;97292.38;2074997;28;20481;-67
2022/08/09 10:59:41;;;;;;;3.00;1.10;;;;;;;29.59;28.60;97283.44;2076319;28;20488;-65
2022/08/09 11:00:58;;;;;;;13.30;1.57;;;;;;;29.50;29.66;97284.47;2072852;28;20447;-65
2022/08/09 11:02:37;;;;;;;7.80;1.47;;;;;;;30.98;27.90;97285.47;2073668;28;20473;-65
2022/08/09 11:04:08;;;;;;;4.30;1.20;;;;;;;31.78;27.06;97293.13;2075358;28;20497;-65
2022/08/09 11:05:30;;;;;;;2.90;1.10;;;;;;;31.45;26.40;97288.06;2075199;28;20489;-67
2022/08/09 11:06:33;;;;;;;3.40;1.50;;;;;;;31.70;25.96;97300.28;2074786;28;20845;-65
2022/08/09 11:07:37;;;;;;;3.27;1.37;;;;;;;30.99;26.65;97284.44;2074731;28;20492;-65
2022/08/09 11:08:58;;;;;;;15.73;1.47;;;;;;;30.50;27.63;97287.53;2073980;28;20464;-65
2022/08/09 11:10:42;;;;;;;9.60;1.53;;;;;;;29.96;27.99;97292.72;2072559;28;20431;-65
2022/08/09 11:11:57;;;;;;;4.90;1.33;;;;;;;30.25;27.84;97285.81;2072147;28;20450;-65
2022/08/09 11:13:19;;;;;;;1.90;1.20;;;;;;;31.05;27.38;97289.09;2074233;28;20430;-65
2022/08/09 11:14:47;;;;;;;3.20;1.40;;;;;;;30.04;28.28;97291.84;2074859;28;20476;-65
2022/08/09 11:15:48;;;;;;;3.20;1.30;;;;;;;28.90;29.19;97286.59;2073689;28;20924;-66
2022/08/09 11:17:31;;;;;;;8.43;1.40;;;;;;;29.21;29.59;97285.84;2075162;28;20206;-65
2022/08/09 11:18:44;;;;;;;3.90;1.30;;;;;;;29.97;27.97;97283.63;2073475;28;20441;-65
2022/08/09 11:20:07;;;;;;;11.25;1.45;;;;;;;30.36;28.40;97279.22;2070484;28;20193;-65
2022/08/09 11:21:52;;;;;;;5.17;1.20;;;;;;;30.09;28.03;97273.31;2071898;28;20340;-65
2022/08/09 11:23:06;;;;;;;4.60;1.40;;;;;;;31.20;27.13;97274.88;2075229;28;20794;-65
2022/08/09 11:24:12;;;;;;;5.33;1.30;;;;;;;32.11;26.25;97271.09;2075784;28;20197;-66
2022/08/09 11:25:15;;;;;;;4.07;1.47;;;;;;;32.55;25.71;97283.63;2072943;28;20986;-65
2022/08/09 11:26:38;;;;;;;19.77;1.90;;;;;;;31.62;26.14;97286.88;2074842;28;20442;-66
2022/08/09 11:27:46;;;;;;;12.63;1.83;;;;;;;29.94;28.09;97288.53;2073205;28;20422;-65
2022/08/09 11:29:46;;;;;;;2.73;1.30;;;;;;;28.88;29.11;97277.84;2070440;28;20438;-66
2022/08/09 11:31:43;;;;;;;7.50;5.95;;;;;;;30.64;28.03;97285.94;2075337;28;20423;-66
2022/08/09 11:33:29;;;;;;;6.73;2.50;;;;;;;31.58;26.69;97282.88;2081905;28;20220;-66
2022/08/09 11:34:40;;;;;;;5.23;1.17;;;;;;;32.51;25.50;97282.34;2075387;28;20442;-66
2022/08/09 11:58:23;;;;;;;8.00;2.30;;;;;;;34.71;22.93;97264.88;2103212;27;20566;-66
2022/08/09 11:59:34;;;;;;;13.87;2.23;;;;;;;32.64;24.24;97260.84;2096553;28;20432;-66
2022/08/09 12:00:49;;;;;;;24.67;2.20;;;;;;;32.97;24.45;97263.00;2098073;28;20963;-67
2022/08/09 12:01:53;;;;;;;3.30;1.43;;;;;;;32.70;24.30;97260.06;2091081;28;20441;-67
2022/08/09 12:03:17;;;;;;;4.00;1.70;;;;;;;33.22;24.05;97257.16;2090441;28;20458;-67
2022/08/09 12:04:39;;;;;;;3.77;1.20;;;;;;;33.91;23.52;97252.78;2089701;28;20790;-66
2022/08/09 12:05:40;;;;;;;2.23;1.10;;;;;;;33.71;23.55;97260.78;2092596;28;20413;-66
2022/08/09 12:06:57;;;;;;;4.40;1.50;;;;;;;31.72;25.16;97265.03;2088813;28;20445;-66
2022/08/09 12:07:59;;;;;;;8.37;1.90;;;;;;;31.89;25.19;97266.47;2091328;28;20416;-66
2022/08/09 12:09:07;;;;;;;9.13;1.40;;;;;;;33.24;23.91;97254.25;2091319;28;20969;-66
2022/08/09 12:10:23;;;;;;;2.33;1.20;;;;;;;33.68;23.46;97255.78;2092508;28;20424;-67
2022/08/09 12:11:40;;;;;;;3.10;1.43;;;;;;;33.76;23.51;97254.78;2089903;28;20444;-67
2022/08/09 12:13:02;;;;;;;13.40;9.90;;;;;;;34.06;23.15;97249.91;2090908;28;20432;-67
2022/08/09 12:14:29;;;;;;;2.73;1.37;;;;;;;33.13;23.77;97242.97;2091519;28;20433;-67
2022/08/09 12:15:58;;;;;;;3.20;2.73;;;;;;;33.62;23.03;97249.28;2091943;28;20446;-67
2022/08/09 12:16:59;;;;;;;12.20;10.90;;;;;;;34.31;22.94;97239.34;2093349;28;20420;-67
2022/08/09 12:18:21;;;;;;;4.50;2.70;;;;;;;34.84;22.48;97254.00;2091674;28;20516;-67
2022/08/09 12:19:30;;;;;;;4.17;1.43;;;;;;;35.23;21.87;97262.38;2087608;28;20950;-67
2022/08/09 12:20:33;;;;;;;2.50;1.33;;;;;;;35.23;21.79;97257.75;2088108;28;20429;-67
2022/08/09 12:21:37;;;;;;;1.80;1.13;;;;;;;35.38;21.69;97251.31;2087220;28;20463;-68
2022/08/09 12:23:00;;;;;;;9.93;1.27;;;;;;;35.12;21.69;97253.84;2082989;28;20921;-67
2022/08/09 12:24:06;;;;;;;3.60;1.43;;;;;;;35.24;22.06;97262.16;2085674;28;20794;-68
2022/08/09 12:25:18;;;;;;;3.00;1.20;;;;;;;35.62;21.21;97258.75;2091405;28;20461;-67
2022/08/09 12:26:49;;;;;;;8.20;1.40;;;;;;;35.92;21.50;97258.25;2091105;28;20516;-67
2022/08/09 12:28:12;;;;;;;2.53;1.13;;;;;;;35.58;21.34;97249.38;2090060;28;20442;-67
2022/08/09 12:29:33;;;;;;;3.87;1.37;;;;;;;36.23;20.60;97253.91;2091085;28;20429;-67
2022/08/09 12:30:56;;;;;;;1.93;1.10;;;;;;;34.16;22.20;97247.66;2090584;28;20424;-68
2022/08/09 12:32:07;;;;;;;8.83;1.60;;;;;;;32.61;23.47;97263.09;2085459;28;20420;-68
2022/08/09 12:33:09;;;;;;;3.63;1.23;;;;;;;31.09;25.35;97241.09;2090358;28;20433;-66
2022/08/09 12:34:12;;;;;;;6.50;1.50;;;;;;;31.55;25.14;97257.09;2093060;28;20950;-64
2022/08/09 12:35:14;;;;;;;1.87;1.00;;;;;;;31.83;24.50;97256.41;2091886;28;20468;-65
2022/08/09 12:36:22;;;;;;;3.50;1.47;;;;;;;33.09;23.33;97259.78;2089855;28;20507;-65
2022/08/09 12:37:37;;;;;;;1.93;1.00;;;;;;;32.46;23.76;97258.59;2091347;28;20458;-65
2022/08/09 12:38:53;;;;;;;2.37;1.07;;;;;;;32.99;22.84;97258.25;2089971;28;20754;-65
2022/08/09 12:40:07;;;;;;;6.20;1.13;;;;;;;32.55;23.64;97240.41;2091311;28;20436;-65
2022/08/09 12:41:08;;;;;;;3.77;1.30;;;;;;;33.31;23.22;97253.28;2090643;28;20455;-65
2022/08/09 12:42:13;;;;;;;4.10;1.00;;;;;;;33.51;22.96;97253.41;2089607;28;20428;-66
2022/08/09 13:04:38;;;;;;;3.63;1.03;;;;;;;34.12;21.42;97237.41;2084242;28;21038;-66
2022/08/09 13:05:46;;;;;;;7.33;1.10;;;;;;;31.45;24.02;97232.25;2079698;28;20427;-66
2022/08/09 13:07:15;;;;;;;3.57;1.20;;;;;;;31.55;23.98;97229.25;2062280;28;20452;-67
2022/08/09 13:08:22;;;;;;;6.30;1.20;;;;;;;32.07;23.39;97222.88;2058105;28;20425;-67
2022/08/09 13:09:41;;;;;;;5.37;1.60;;;;;;;33.47;22.91;97229.66;2054180;28;20528;-67
2022/08/09 13:10:57;;;;;;;2.77;1.20;;;;;;;34.08;22.16;97239.72;2051402;28;20475;-67
2022/08/09 13:12:02;;;;;;;4.17;1.40;;;;;;;34.13;22.05;97225.53;2053564;28;20524;-67
2022/08/09 13:13:04;;;;;;;5.53;1.63;;;;;;;32.50;22.91;97219.34;2055383;28;20421;-67
2022/08/09 13:14:14;;;;;;;20.47;2.90;;;;;;;30.83;24.68;97223.47;2053725;28;20437;-66
2022/08/09 13:15:50;;;;;;;6.60;1.70;;;;;;;30.17;25.01;97215.03;2054236;28;20433;-66
2022/08/09 13:16:58;;;;;;;35.20;2.93;;;;;;;30.05;25.19;97214.63;2055087;28;20581;-66
2022/08/09 13:18:03;;;;;;;8.47;1.90;;;;;;;29.23;26.38;97216.63;2054055;28;20448;-68
2022/08/09 13:19:21;;;;;;;23.97;1.70;;;;;;;29.87;25.89;97217.56;2054708;28;20781;-66
2022/08/09 13:20:35;;;;;;;22.20;1.97;;;;;;;31.27;24.78;97221.84;2054570;28;20429;-66
2022/08/09 13:22:11;;;;;;;9.80;1.20;;;;;;;33.06;23.09;97212.31;2051104;28;20453;-66
2022/08/09 13:23:40;;;;;;;2.10;1.30;;;;;;;33.61;22.56;97219.72;2054683;28;20447;-66
2022/08/09 13:25:02;;;;;;;5.97;1.50;;;;;;;34.31;22.37;97216.81;2054981;28;20433;-66
2022/08/09 13:26:04;;;;;;;2.60;1.10;;;;;;;34.70;21.70;97222.53;2052318;28;20436;-66
2022/08/09 13:27:25;;;;;;;5.13;1.50;;;;;;;35.22;21.40;97214.56;2054715;28;20941;-67
2022/08/09 13:28:29;;;;;;;4.20;1.20;;;;;;;35.64;20.77;97207.78;2054483;28;20468;-66
2022/08/09 13:29:36;;;;;;;1.50;1.13;;;;;;;35.15;21.14;97209.16;2053930;28;20444;-66
2022/08/09 13:31:10;;;;;;;3.50;1.30;;;;;;;35.39;21.08;97212.25;2054000;28;20464;-65
2022/08/09 13:32:52;;;;;;;2.90;1.00;;;;;;;35.70;20.55;97216.13;2054770;28;20452;-66
2022/08/09 13:33:55;;;;;;;3.27;1.00;;;;;;;35.95;20.21;97211.63;2054927;28;20429;-66
2022/08/09 13:34:56;;;;;;;5.23;1.40;;;;;;;36.35;19.84;97215.97;2054674;28;20430;-66
2022/08/09 13:35:58;;;;;;;1.90;1.10;;;;;;;35.58;19.68;97210.50;2052845;28;20499;-66
2022/08/09 13:37:19;;;;;;;3.30;1.37;;;;;;;35.89;19.94;97201.63;2055025;28;20465;-66
2022/08/09 13:38:41;;;;;;;6.13;1.77;;;;;;;35.79;19.55;97212.09;2054717;28;20940;-66
2022/08/09 13:39:58;;;;;;;3.80;1.20;;;;;;;35.93;19.74;97205.56;2053350;28;20470;-66
2022/08/09 13:41:20;;;;;;;5.93;1.67;;;;;;;35.96;19.90;97204.31;2054303;28;20457;-66
2022/08/09 13:42:43;;;;;;;3.93;1.30;;;;;;;34.26;20.67;97209.34;2054634;28;20509;-66
2022/08/09 13:43:45;;;;;;;3.90;1.10;;;;;;;34.61;20.60;97200.22;2053431;28;20433;-66
2022/08/09 13:44:47;;;;;;;1.40;1.13;;;;;;;34.84;20.26;97205.19;2053372;28;20478;-66
2022/08/09 13:45:49;;;;;;;2.00;1.10;;;;;;;35.23;20.44;97210.81;2053118;28;20934;-66
2022/08/09 13:47:11;;;;;;;1.83;1.10;;;;;;;32.72;22.33;97209.34;2054121;28;20456;-66
2022/08/09 13:48:33;;;;;;;3.53;0.97;;;;;;;34.50;20.95;97207.94;2054760;28;20429;-66
2022/08/09 13:49:35;;;;;;;6.37;1.30;;;;;;;35.02;20.46;97209.19;2054958;28;20437;-66
2022/08/09 13:50:40;;;;;;;2.87;1.00;;;;;;;35.22;20.37;97206.44;2056622;28;20433;-67
2022/08/09 13:51:43;;;;;;;1.70;1.00;;;;;;;35.50;19.80;97200.72;2056595;28;20500;-66
2022/08/09 14:13:38;;;;;;;8.10;1.20;;;;;;;34.69;20.95;97189.16;2092082;28;21193;-65
2022/08/09 14:14:59;;;;;;;2.87;1.33;;;;;;;35.14;20.48;97210.19;2087115;28;20943;-66
2022/08/09 14:16:02;;;;;;;3.10;1.00;;;;;;;34.76;20.52;97203.53;2084437;28;20453;-67
2022/08/09 14:17:11;;;;;;;4.60;1.00;;;;;;;34.12;21.16;97194.94;2083519;28;20782;-66
2022/08/09 14:18:17;;;;;;;3.60;1.20;;;;;;;34.42;20.58;97191.03;2083076;28;20496;-66
2022/08/09 14:19:27;;;;;;;6.10;1.10;;;;;;;34.13;21.27;97198.47;2082317;28;20506;-66
2022/08/09 14:20:34;;;;;;;4.90;1.67;;;;;;;35.03;20.57;97195.41;2081427;28;20448;-66
2022/08/09 14:21:35;;;;;;;2.83;1.10;;;;;;;35.69;19.74;97203.59;2083805;28;20669;-67
2022/08/09 14:22:37;;;;;;;3.47;1.10;;;;;;;34.40;20.20;97185.81;2084913;28;20429;-66
2022/08/09 14:23:38;;;;;;;4.60;1.10;;;;;;;34.97;20.21;97194.38;2086380;28;20422;-66
2022/08/09 14:24:47;;;;;;;3.10;1.00;;;;;;;35.68;19.80;97201.91;2083288;28;20902;-66
2022/08/09 14:25:55;;;;;;;2.63;0.90;;;;;;;36.03;19.46;97188.81;2079334;28;21396;-66
2022/08/09 14:27:02;;;;;;;2.70;0.90;;;;;;;35.91;19.72;97190.53;2080211;28;20517;-66
2022/08/09 14:28:20;;;;;;;4.50;1.23;;;;;;;36.17;19.32;97189.56;2079919;28;20425;-67
2022/08/09 14:29:27;;;;;;;4.20;0.90;;;;;;;36.03;19.51;97188.81;2084142;28;20434;-66
2022/08/09 14:30:48;;;;;;;2.30;1.40;;;;;;;35.99;19.35;97182.16;2079929;28;20419;-67
2022/08/09 14:31:50;;;;;;;2.93;1.00;;;;;;;36.07;19.09;97183.78;2084184;28;20425;-67
2022/08/09 14:32:54;;;;;;;4.27;1.00;;;;;;;36.34;19.29;97184.44;2081101;28;20433;-66
2022/08/09 14:33:58;;;;;;;1.83;0.97;;;;;;;36.50;18.93;97180.34;2083608;28;20837;-67
2022/08/09 14:35:05;;;;;;;6.90;1.20;;;;;;;36.51;18.52;97189.34;2082843;28;20440;-67
2022/08/09 14:36:07;;;;;;;4.80;1.00;;;;;;;36.47;18.61;97186.25;2080631;28;25752;-66
2022/08/09 14:37:21;;;;;;;1.50;0.90;;;;;;;36.51;18.97;97183.91;2080977;28;20431;-66
2022/08/09 14:38:28;;;;;;;1.97;1.00;;;;;;;36.30;19.12;97183.19;2084573;28;20889;-67
2022/08/09 14:39:30;;;;;;;27.03;21.20;;;;;;;36.46;18.91;97187.28;2084504;28;20438;-67
2022/08/09 14:40:41;;;;;;;21.70;15.27;;;;;;;36.75;19.11;97191.22;2085163;28;20450;-69
2022/08/09 14:42:03;;;;;;;20.53;15.40;;;;;;;36.90;18.83;97181.91;2080326;28;20445;-67
2022/08/09 14:43:05;;;;;;;10.50;8.87;;;;;;;37.04;18.22;97185.31;2082434;28;20430;-67
2022/08/09 14:44:06;;;;;;;2.10;1.27;;;;;;;36.97;18.25;97190.84;2083791;28;20438;-67
2022/08/09 14:45:12;;;;;;;6.00;1.70;;;;;;;35.10;19.82;97179.13;2081886;28;20437;-67
2022/08/09 14:46:34;;;;;;;6.53;1.40;;;;;;;35.52;19.83;97176.91;2080479;28;20523;-67
2022/08/09 14:47:56;;;;;;;1.70;1.20;;;;;;;36.44;19.04;97178.50;2080036;28;21169;-67
2022/08/09 14:49:01;;;;;;;6.60;1.33;;;;;;;36.82;19.15;97172.13;2081782;28;20444;-66
2022/08/09 14:50:05;;;;;;;4.77;0.93;;;;;;;36.27;18.87;97181.75;2081089;28;20440;-66
2022/08/09 14:51:07;;;;;;;2.73;1.07;;;;;;;36.34;19.22;97170.84;2076204;28;20438;-67
2022/08/09 14:52:09;;;;;;;5.23;1.03;;;;;;;36.69;18.62;97186.69;2077612;28;20423;-66
2022/08/09 14:53:12;;;;;;;2.27;1.10;;;;;;;36.54;19.01;97178.03;2081419;28;20427;-67
2022/08/09 14:54:15;;;;;;;3.63;1.10;;;;;;;34.74;20.23;97185.81;2083070;28;20427;-67
2022/08/09 14:55:22;;;;;;;2.53;1.10;;;;;;;35.85;19.36;97172.41;2083387;28;20480;-66
2022/08/09 14:56:23;;;;;;;6.00;1.20;;;;;;;36.48;18.99;97181.63;2083400;28;20460;-66
2022/08/09 14:57:27;;;;;;;6.30;1.30;;;;;;;35.78;19.49;97178.69;2084024;28;20445;-66
2022/08/09 14:58:44;;;;;;;1.97;1.00;;;;;;;35.60;19.46;97178.56;2083604;28;20433;-66
2022/08/09 14:59:46;;;;;;;3.40;1.30;;;;;;;35.59;19.68;97168.75;2080850;28;20922;-67
2022/08/09 15:00:50;;;;;;;2.20;1.00;;;;;;;35.84;19.10;97168.00;2076584;28;20972;-66
2022/08/09 15:01:52;;;;;;;2.70;1.20;;;;;;;36.80;19.37;97173.41;2077682;28;20419;-66
2022/08/09 15:02:54;;;;;;;7.40;1.10;;;;;;;37.47;18.48;97170.03;2084024;28;20445;-67
2022/08/09 15:03:58;;;;;;;5.43;1.00;;;;;;;36.50;18.54;97168.66;2083087;28;20516;-67
2022/08/09 15:05:05;;;;;;;2.20;1.03;;;;;;;35.00;19.45;97179.56;2084227;28;20422;-67
2022/08/09 15:06:08;;;;;;;11.73;1.20;;;;;;;35.92;18.85;97181.34;2078501;28;20441;-67
2022/08/09 15:07:11;;;;;;;3.03;1.33;;;;;;;35.76;18.67;97171.81;2084124;28;20434;-65
2022/08/09 15:08:13;;;;;;;5.90;1.70;;;;;;;35.32;19.84;97166.09;2084879;28;20438;-66
2022/08/09 15:09:20;;;;;;;3.17;0.97;;;;;;;36.12;19.26;97173.91;2081133;28;20429;-66
2022/08/09 15:10:41;;;;;;;1.77;1.00;;;;;;;36.59;18.63;97170.84;2085068;28;20457;-66
2022/08/09 15:12:02;;;;;;;3.23;1.07;;;;;;;36.97;18.85;97177.25;2079297;28;20541;-66
2022/08/09 15:13:04;;;;;;;4.03;1.20;;;;;;;37.27;18.52;97171.06;2080361;28;20478;-66
2022/08/09 15:14:09;;;;;;;2.70;1.60;;;;;;;37.15;18.08;97168.25;2074357;28;20672;-64
2022/08/09 15:15:14;;;;;;;1.43;0.93;;;;;;;37.09;19.15;97169.16;2073987;28;20485;-65
2022/08/09 15:16:17;;;;;;;3.53;1.20;;;;;;;37.38;18.65;97172.22;2082373;28;20564;-65
2022/08/09 15:17:18;;;;;;;5.73;0.97;;;;;;;35.84;19.14;97157.97;2083134;28;20425;-65
2022/08/09 15:18:20;;;;;;;2.57;0.93;;;;;;;36.57;18.75;97158.53;2079409;28;20422;-65
2022/08/09 15:19:22;;;;;;;2.93;0.90;;;;;;;34.83;20.17;97173.72;2082709;28;20457;-65
2022/08/09 15:20:27;;;;;;;6.40;0.97;;;;;;;35.79;19.50;97158.59;2088782;28;20426;-65
2022/08/09 15:21:49;;;;;;;3.07;1.00;;;;;;;36.34;19.06;97164.56;2081602;28;20465;-65
2022/08/09 15:23:04;;;;;;;2.27;0.97;;;;;;;35.77;19.06;97162.59;2082583;28;20971;-65
2022/08/09 15:24:26;;;;;;;9.90;0.80;;;;;;;33.83;20.36;97163.63;2076133;28;20442;-65
2022/08/09 15:25:27;;;;;;;3.10;1.20;;;;;;;34.80;20.28;97168.69;2072670;28;20427;-65
2022/08/09 15:26:42;;;;;;;2.97;1.30;;;;;;;35.50;19.65;97160.00;2076229;28;20968;-65
2022/08/09 15:27:46;;;;;;;4.20;0.93;;;;;;;35.63;19.47;97156.38;2080530;28;20789;-65
2022/08/09 15:29:02;;;;;;;5.67;3.10;;;;;;;35.90;19.58;97157.13;2074592;28;20434;-65
2022/08/09 15:30:06;;;;;;;3.77;2.03;;;;;;;35.02;19.45;97160.34;2073613;28;20831;-65
2022/08/09 15:31:28;;;;;;;1.60;1.00;;;;;;;34.48;20.06;97161.22;2076450;28;20466;-65
2022/08/09 15:32:42;;;;;;;6.33;5.20;;;;;;;34.72;20.53;97156.19;2075716;28;20484;-65
2022/08/09 15:33:46;;;;;;;4.00;1.37;;;;;;;34.59;19.78;97156.19;2077518;28;20462;-66
2022/08/09 15:35:08;;;;;;;1.50;0.90;;;;;;;34.69;20.30;97153.06;2075946;28;20427;-65
2022/08/09 15:36:29;;;;;;;1.50;1.00;;;;;;;33.87;20.52;97151.34;2078337;28;20465;-66
2022/08/09 15:37:34;;;;;;;1.73;1.13;;;;;;;33.44;20.97;97148.88;2079523;28;20453;-66
2022/08/09 15:38:57;;;;;;;11.83;1.00;;;;;;;33.96;20.30;97155.50;2071926;28;20918;-66
2022/08/09 15:40:01;;;;;;;1.90;0.90;;;;;;;34.17;20.24;97154.50;2073380;28;20458;-66
2022/08/09 15:41:12;;;;;;;2.80;1.10;;;;;;;33.35;20.69;97159.88;2070092;28;20456;-66
2022/08/09 15:42:22;;;;;;;2.70;1.27;;;;;;;33.75;20.56;97155.63;2078243;28;20765;-66
2022/08/09 15:43:26;;;;;;;3.30;1.20;;;;;;;34.06;20.42;97148.88;2074706;28;20823;-66
2022/08/09 15:44:38;;;;;;;2.90;1.07;;;;;;;34.46;20.15;97168.75;2074912;28;20995;-66
2022/08/09 15:45:41;;;;;;;5.30;1.20;;;;;;;34.58;20.09;97162.69;2073840;28;20968;-66
2022/08/09 15:47:02;;;;;;;6.80;1.43;;;;;;;34.91;19.99;97154.53;2075736;28;20443;-66
2022/08/09 15:48:06;;;;;;;16.77;1.10;;;;;;;34.88;20.09;97156.81;2077923;28;20509;-66